Time;durP1;ratioP1;P1;durP2;ratioP2;P2;SDS_P1;SDS_P2;PMS_P1;PMS_P2;Temp;Humidity;BMP_temperature;BMP_pressure;BME280_temperature;BME280_humidity;BME280_pressure;Samples;Min_cycle;Max_cycle;Signal;HPM_P1;HPM_P2
2023/03/31 00:02:14;;;;;;;0.70;0.57;;;9.90;99.90;;;;;;5097953;28;20024;-73
2023/03/31 00:04:51;;;;;;;2.20;0.60;;;9.90;99.90;;;;;;5079721;28;20468;-73
2023/03/31 00:07:20;;;;;;;4.30;0.60;;;9.80;99.90;;;;;;5079474;28;20028;-73
2023/03/31 00:09:47;;;;;;;2.03;0.70;;;9.80;99.90;;;;;;5096213;28;20032;-73
2023/03/31 00:12:14;;;;;;;0.75;0.60;;;9.70;99.90;;;;;;5096162;28;20561;-74
2023/03/31 00:14:41;;;;;;;1.80;0.60;;;9.80;99.90;;;;;;5078957;28;20028;-74
2023/03/31 00:17:07;;;;;;;2.00;0.60;;;9.80;99.90;;;;;;5079100;28;20027;-73
2023/03/31 00:19:33;;;;;;;4.28;1.17;;;9.90;99.90;;;;;;5096002;28;20024;-73
2023/03/31 00:22:04;;;;;;;3.08;0.90;;;10.00;99.90;;;;;;5079067;28;20111;-73
2023/03/31 00:24:33;;;;;;;2.83;0.52;;;10.00;99.90;;;;;;5097401;28;20566;-73
2023/03/31 00:26:59;;;;;;;0.90;0.70;;;10.00;99.90;;;;;;5078947;28;20035;-73
2023/03/31 00:29:25;;;;;;;2.65;0.47;;;10.00;99.90;;;;;;5097081;28;20109;-73
2023/03/31 00:31:51;;;;;;;3.60;0.60;;;10.00;99.90;;;;;;5078864;28;20066;-73
2023/03/31 00:34:17;;;;;;;2.15;0.70;;;10.00;99.90;;;;;;5097068;28;20460;-73
2023/03/31 00:36:48;;;;;;;1.38;0.60;;;10.20;99.90;;;;;;5078723;28;20020;-73
2023/03/31 00:39:17;;;;;;;2.90;0.52;;;10.20;99.90;;;;;;5078839;28;20020;-73
2023/03/31 00:41:43;;;;;;;3.30;0.90;;;10.20;99.90;;;;;;5095543;28;20483;-73
2023/03/31 00:44:25;;;;;;;3.45;0.80;;;10.30;99.90;;;;;;5078365;28;20032;-73
2023/03/31 00:46:57;;;;;;;2.72;1.60;;;10.20;99.90;;;;;;5096810;28;20024;-73
2023/03/31 00:49:31;;;;;;;0.90;0.80;;;10.30;99.90;;;;;;5078635;28;20022;-73
2023/03/31 00:52:12;;;;;;;2.30;1.33;;;10.20;99.90;;;;;;5078261;28;20060;-74
2023/03/31 00:54:39;;;;;;;1.83;0.88;;;10.10;99.90;;;;;;5078417;28;20594;-73
2023/03/31 00:57:07;;;;;;;0.88;0.70;;;10.00;99.90;;;;;;5096574;28;20060;-73
2023/03/31 00:59:40;;;;;;;2.67;0.88;;;9.90;99.90;;;;;;5095334;28;20036;-73
2023/03/31 01:02:07;;;;;;;1.85;1.02;;;9.80;99.90;;;;;;5096540;28;20034;-73
2023/03/31 01:04:43;;;;;;;2.92;1.30;;;9.80;99.90;;;;;;5078233;28;20472;-73
2023/03/31 01:07:09;;;;;;;3.80;1.45;;;9.70;99.90;;;;;;5096481;28;20030;-73
2023/03/31 01:09:37;;;;;;;3.90;1.20;;;9.80;99.90;;;;;;5078313;28;20027;-73
2023/03/31 01:12:06;;;;;;;3.92;1.20;;;9.90;99.90;;;;;;5078209;28;20426;-73
2023/03/31 01:14:32;;;;;;;3.25;1.55;;;9.90;99.90;;;;;;5078558;28;20035;-73
2023/03/31 01:16:58;;;;;;;5.65;1.20;;;9.70;99.90;;;;;;5094692;28;20027;-73
2023/03/31 01:19:47;;;;;;;2.15;1.40;;;9.50;99.90;;;;;;5078336;28;20028;-73
2023/03/31 01:22:30;;;;;;;1.90;1.38;;;9.40;99.90;;;;;;5094155;28;20063;-73
2023/03/31 01:25:32;;;;;;;2.75;1.08;;;9.50;99.90;;;;;;5077653;28;20035;-73
2023/03/31 01:28:19;;;;;;;1.90;1.30;;;9.40;99.90;;;;;;5096289;28;20046;-73
2023/03/31 01:30:59;;;;;;;1.95;1.27;;;9.20;99.90;;;;;;5077865;28;20494;-73
2023/03/31 01:33:57;;;;;;;2.72;1.67;;;9.10;99.90;;;;;;5095981;28;20031;-73
2023/03/31 01:36:31;;;;;;;6.13;1.90;;;8.90;99.90;;;;;;5073301;28;20131;-72
2023/03/31 01:39:14;;;;;;;3.75;1.52;;;8.80;99.90;;;;;;5094657;28;20028;-73
2023/03/31 01:42:04;;;;;;;3.65;1.40;;;8.70;99.90;;;;;;5077547;28;20029;-73
2023/03/31 01:44:36;;;;;;;4.95;2.00;;;8.80;99.90;;;;;;5095801;28;20055;-73
2023/03/31 01:47:16;;;;;;;3.78;2.22;;;8.90;99.90;;;;;;5095888;28;20039;-73
2023/03/31 01:49:56;;;;;;;3.95;1.45;;;9.10;99.90;;;;;;5077492;28;20056;-73
2023/03/31 01:52:41;;;;;;;3.50;1.50;;;9.20;99.90;;;;;;5094244;28;20055;-73
2023/03/31 01:55:24;;;;;;;2.60;1.67;;;9.00;99.90;;;;;;5094244;28;20452;-73
2023/03/31 01:58:10;;;;;;;3.97;1.85;;;9.10;99.90;;;;;;5077485;28;20494;-73
2023/03/31 02:00:43;;;;;;;3.15;1.90;;;9.20;99.90;;;;;;5095349;28;20089;-73
2023/03/31 02:03:20;;;;;;;3.55;2.25;;;9.10;99.90;;;;;;5095092;28;20055;-73
2023/03/31 02:05:54;;;;;;;3.30;1.60;;;8.90;99.90;;;;;;5095366;28;20032;-72
2023/03/31 02:08:32;;;;;;;3.10;1.67;;;8.70;99.90;;;;;;5095371;28;20341;-72
2023/03/31 02:10:59;;;;;;;3.55;1.90;;;8.50;99.90;;;;;;5077078;28;20471;-73
2023/03/31 02:13:27;;;;;;;2.60;1.77;;;8.40;99.90;;;;;;5093857;28;20525;-73
2023/03/31 02:16:04;;;;;;;4.50;1.73;;;8.20;99.90;;;;;;5095084;28;20114;-73
2023/03/31 02:18:32;;;;;;;3.45;1.75;;;8.00;99.90;;;;;;5095086;28;20110;-73
2023/03/31 02:20:59;;;;;;;3.65;2.00;;;7.80;99.90;;;;;;5094967;28;20028;-73
2023/03/31 02:23:30;;;;;;;6.75;2.00;;;7.70;99.90;;;;;;5076740;28;20033;-73
2023/03/31 02:26:13;;;;;;;7.00;2.10;;;7.70;99.90;;;;;;5094971;28;20021;-73
2023/03/31 02:28:39;;;;;;;2.83;1.80;;;7.60;99.90;;;;;;5076699;28;20028;-73
2023/03/31 02:31:19;;;;;;;3.97;1.83;;;7.50;99.90;;;;;;5094484;28;20107;-73
2023/03/31 02:33:46;;;;;;;4.13;2.00;;;7.40;99.90;;;;;;5095356;28;20532;-73
2023/03/31 02:36:12;;;;;;;4.05;1.85;;;7.10;99.90;;;;;;5094763;28;20025;-73
2023/03/31 02:39:05;;;;;;;2.53;1.70;;;7.10;99.90;;;;;;5076630;28;20086;-73
2023/03/31 02:41:31;;;;;;;2.75;2.22;;;7.10;99.90;;;;;;5094580;28;20024;-72
2023/03/31 02:43:57;;;;;;;4.90;2.13;;;6.90;99.90;;;;;;5076458;28;20028;-73
2023/03/31 02:46:24;;;;;;;4.78;2.00;;;6.80;99.90;;;;;;5094258;28;20464;-73
2023/03/31 02:48:54;;;;;;;4.82;2.00;;;6.80;99.90;;;;;;5094247;28;20020;-73
2023/03/31 02:51:35;;;;;;;4.85;2.05;;;6.70;99.90;;;;;;5094559;28;20038;-72
2023/03/31 02:54:15;;;;;;;4.88;2.33;;;6.60;99.90;;;;;;5094655;28;20044;-72
2023/03/31 02:57:25;;;;;;;3.03;2.03;;;6.50;99.90;;;;;;5076158;28;20456;-72
2023/03/31 03:00:01;;;;;;;3.60;2.30;;;6.40;99.90;;;;;;5030484;28;20109;-73
2023/03/31 03:03:01;;;;;;;7.93;2.95;;;6.30;99.90;;;;;;5094298;28;20107;-73
2023/03/31 03:05:35;;;;;;;7.40;2.40;;;6.30;99.90;;;;;;5094275;28;20028;-73
2023/03/31 03:08:13;;;;;;;14.73;3.35;;;6.20;99.90;;;;;;5076134;28;20031;-73
2023/03/31 03:11:00;;;;;;;4.35;2.58;;;6.10;99.90;;;;;;5093869;28;20494;-73
2023/03/31 03:13:45;;;;;;;8.80;2.65;;;6.10;99.90;;;;;;5076001;28;20469;-73
2023/03/31 03:16:32;;;;;;;6.78;2.80;;;6.00;99.90;;;;;;5094614;28;20077;-73
2023/03/31 03:19:00;;;;;;;5.20;2.38;;;5.90;99.90;;;;;;5076052;28;20073;-73
2023/03/31 03:21:26;;;;;;;4.13;2.40;;;5.90;99.90;;;;;;5092784;28;20470;-73
2023/03/31 03:23:53;;;;;;;10.23;2.90;;;5.80;99.90;;;;;;5092749;28;20035;-72
2023/03/31 03:26:22;;;;;;;4.65;2.28;;;5.80;99.90;;;;;;5075848;28;20031;-73
2023/03/31 03:28:48;;;;;;;4.97;2.53;;;5.70;99.90;;;;;;5094184;28;20020;-72
2023/03/31 03:31:14;;;;;;;7.80;3.08;;;5.70;99.90;;;;;;5093658;28;20365;-72
2023/03/31 03:33:40;;;;;;;7.32;2.88;;;5.70;99.90;;;;;;5093885;28;20028;-73
2023/03/31 03:36:06;;;;;;;4.30;2.55;;;5.60;99.90;;;;;;5075453;28;20028;-73
2023/03/31 03:38:32;;;;;;;9.55;3.72;;;5.60;99.90;;;;;;5075854;28;20127;-72
2023/03/31 03:40:58;;;;;;;5.22;3.08;;;5.50;99.90;;;;;;5075883;28;20114;-72
2023/03/31 03:43:24;;;;;;;5.45;3.22;;;5.50;99.90;;;;;;5093844;28;20455;-73
2023/03/31 03:45:50;;;;;;;3.67;2.95;;;5.40;99.90;;;;;;5093803;28;20073;-73
2023/03/31 03:48:16;;;;;;;7.45;2.90;;;5.40;99.90;;;;;;5093993;28;20024;-73
2023/03/31 03:50:42;;;;;;;4.80;3.13;;;5.30;99.90;;;;;;5093501;28;20031;-73
2023/03/31 03:53:07;;;;;;;8.20;3.10;;;5.30;99.90;;;;;;5093713;28;20077;-72
2023/03/31 03:55:33;;;;;;;3.45;2.90;;;5.30;99.90;;;;;;5075573;28;20464;-73
2023/03/31 03:57:59;;;;;;;8.48;2.95;;;5.20;99.90;;;;;;5075619;28;20101;-72
2023/03/31 04:00:25;;;;;;;4.88;2.55;;;5.20;99.90;;;;;;5075663;28;20035;-73
2023/03/31 04:02:50;;;;;;;7.85;2.58;;;5.20;99.90;;;;;;5076049;28;20464;-73
2023/03/31 04:05:16;;;;;;;4.25;2.90;;;5.10;99.90;;;;;;5075512;28;20028;-73
2023/03/31 04:07:42;;;;;;;5.35;2.60;;;5.10;99.90;;;;;;5094096;28;20040;-73
2023/03/31 04:10:08;;;;;;;4.85;2.83;;;5.00;99.90;;;;;;5075453;28;20032;-73
2023/03/31 04:12:34;;;;;;;4.90;2.92;;;5.00;99.90;;;;;;5093219;28;20024;-66
2023/03/31 04:15:00;;;;;;;4.50;3.63;;;5.00;99.90;;;;;;5093320;28;20056;-66
2023/03/31 04:17:33;;;;;;;4.88;3.13;;;5.10;99.90;;;;;;5075457;28;20024;-65
2023/03/31 04:20:06;;;;;;;6.85;3.17;;;5.10;99.90;;;;;;5093515;28;20031;-72
2023/03/31 04:22:39;;;;;;;3.97;2.65;;;5.00;99.90;;;;;;5093472;28;20020;-72
2023/03/31 04:25:13;;;;;;;8.07;2.90;;;5.00;99.90;;;;;;5093490;28;20065;-71
2023/03/31 04:27:45;;;;;;;5.22;3.35;;;4.90;99.90;;;;;;5093517;28;20020;-71
2023/03/31 04:30:13;;;;;;;5.38;3.10;;;4.90;99.90;;;;;;5093420;28;20028;-71
2023/03/31 04:32:38;;;;;;;7.95;4.10;;;4.90;99.90;;;;;;5094878;28;20085;-72
2023/03/31 04:35:05;;;;;;;7.82;3.47;;;4.80;99.90;;;;;;5079306;28;20459;-72
2023/03/31 04:37:33;;;;;;;7.65;3.35;;;4.80;99.90;;;;;;5080552;28;20028;-72
2023/03/31 04:40:07;;;;;;;5.78;3.67;;;4.80;99.90;;;;;;5100712;28;20079;-73
2023/03/31 04:42:33;;;;;;;7.22;3.38;;;4.70;99.90;;;;;;5082505;28;20043;-73
2023/03/31 04:44:59;;;;;;;5.57;3.65;;;4.70;99.90;;;;;;5100263;28;20020;-73
2023/03/31 04:47:24;;;;;;;6.68;3.92;;;4.70;99.90;;;;;;5100031;28;20025;-72
2023/03/31 04:49:50;;;;;;;7.80;3.78;;;4.70;99.90;;;;;;5097648;28;20024;-73
2023/03/31 04:52:16;;;;;;;10.25;3.50;;;4.70;99.90;;;;;;5097528;28;20036;-73
2023/03/31 04:54:41;;;;;;;8.45;3.97;;;4.70;99.90;;;;;;5078519;28;20034;-72
2023/03/31 04:57:07;;;;;;;10.05;4.20;;;4.70;99.90;;;;;;5078453;28;20020;-72
2023/03/31 04:59:32;;;;;;;5.78;3.65;;;4.70;99.90;;;;;;5078574;28;20021;-72
2023/03/31 05:01:58;;;;;;;7.32;3.80;;;4.70;99.90;;;;;;5096573;28;20036;-73
2023/03/31 05:04:24;;;;;;;9.27;3.58;;;4.70;99.90;;;;;;5078383;28;20024;-72
2023/03/31 05:06:50;;;;;;;7.90;3.83;;;4.70;99.90;;;;;;5078701;28;20123;-73
2023/03/31 05:09:16;;;;;;;6.93;3.92;;;4.80;99.90;;;;;;5078953;28;20441;-71
2023/03/31 05:11:41;;;;;;;8.48;4.30;;;4.80;99.90;;;;;;5096398;28;20035;-71
2023/03/31 05:14:07;;;;;;;7.57;3.90;;;4.90;99.90;;;;;;5078247;28;20376;-71
2023/03/31 05:16:33;;;;;;;9.95;4.40;;;5.00;99.90;;;;;;5096682;28;20020;-71
2023/03/31 05:18:58;;;;;;;6.70;4.63;;;5.00;99.90;;;;;;5096035;28;20020;-71
2023/03/31 05:21:25;;;;;;;11.13;5.05;;;5.20;99.90;;;;;;5077963;28;20043;-71
2023/03/31 05:23:52;;;;;;;9.57;4.85;;;5.30;99.90;;;;;;5096416;28;20533;-71
2023/03/31 05:26:17;;;;;;;8.73;5.30;;;5.30;99.90;;;;;;5096202;28;20128;-71
2023/03/31 05:28:43;;;;;;;13.05;5.50;;;5.40;99.90;;;;;;5095770;28;20443;-71
2023/03/31 05:31:11;;;;;;;15.25;5.35;;;5.50;99.90;;;;;;5096150;28;20032;-72
2023/03/31 05:33:40;;;;;;;10.63;5.25;;;5.60;99.90;;;;;;5096136;28;20016;-71
2023/03/31 05:36:11;;;;;;;7.35;4.75;;;5.70;99.90;;;;;;5096001;28;20024;-72
2023/03/31 05:38:37;;;;;;;10.27;6.50;;;5.90;99.90;;;;;;5094617;28;20028;-72
2023/03/31 05:41:03;;;;;;;28.75;6.30;;;6.00;99.90;;;;;;5095892;28;20114;-71
2023/03/31 05:43:28;;;;;;;9.23;4.75;;;6.10;99.90;;;;;;5095257;28;20039;-72
2023/03/31 05:45:54;;;;;;;8.25;4.93;;;6.00;99.90;;;;;;5095558;28;20506;-72
2023/03/31 05:48:20;;;;;;;8.88;4.72;;;6.10;99.90;;;;;;5096403;28;20073;-72
2023/03/31 05:50:46;;;;;;;8.25;4.88;;;6.10;99.90;;;;;;5078846;28;20040;-72
2023/03/31 05:53:12;;;;;;;8.00;4.57;;;6.20;99.90;;;;;;5077961;28;20048;-72
2023/03/31 05:55:38;;;;;;;6.13;4.57;;;6.20;99.90;;;;;;5078233;28;20038;-72
2023/03/31 05:58:05;;;;;;;9.95;4.40;;;6.40;99.90;;;;;;5077075;28;20127;-72
2023/03/31 06:00:31;;;;;;;7.90;4.60;;;6.70;99.90;;;;;;5077754;28;20118;-72
2023/03/31 06:02:58;;;;;;;9.93;4.90;;;7.00;99.90;;;;;;5077228;28;20028;-71
2023/03/31 06:05:25;;;;;;;11.35;3.80;;;7.30;99.90;;;;;;5095579;28;20403;-72
2023/03/31 06:07:52;;;;;;;7.03;4.22;;;7.60;99.90;;;;;;5093953;28;20460;-72
2023/03/31 06:10:19;;;;;;;13.82;4.82;;;8.00;99.90;;;;;;5095574;28;20491;-72
2023/03/31 06:12:45;;;;;;;11.48;4.20;;;8.40;99.90;;;;;;5076989;28;20020;-71
2023/03/31 06:15:10;;;;;;;9.85;3.50;;;8.90;99.90;;;;;;5095123;28;20028;-71
2023/03/31 06:17:36;;;;;;;12.55;3.40;;;9.00;99.90;;;;;;5094946;28;20047;-72
2023/03/31 06:20:04;;;;;;;6.00;3.50;;;9.20;99.90;;;;;;5094729;28;20470;-73
2023/03/31 06:22:29;;;;;;;8.02;3.10;;;9.20;99.90;;;;;;5076681;28;20031;-72
2023/03/31 06:24:55;;;;;;;9.85;3.17;;;9.30;99.90;;;;;;5076702;28;20032;-73
2023/03/31 06:27:21;;;;;;;9.07;3.30;;;9.20;99.90;;;;;;5094836;28;20024;-73
2023/03/31 06:29:48;;;;;;;5.82;3.60;;;9.10;99.90;;;;;;5076720;28;20024;-77
2023/03/31 06:32:14;;;;;;;6.25;3.25;;;9.00;99.90;;;;;;5076597;28;20024;-73
2023/03/31 06:34:40;;;;;;;9.77;3.72;;;9.10;99.90;;;;;;5094719;28;20024;-73
2023/03/31 06:37:05;;;;;;;7.97;3.40;;;9.20;99.90;;;;;;5076444;28;20035;-73
2023/03/31 06:39:31;;;;;;;9.77;4.35;;;9.20;99.90;;;;;;5076618;28;20407;-73
2023/03/31 06:41:57;;;;;;;10.90;4.90;;;9.00;99.90;;;;;;5076478;28;20484;-73
2023/03/31 06:44:23;;;;;;;12.98;5.18;;;9.00;99.90;;;;;;5094635;28;20516;-72
2023/03/31 06:46:49;;;;;;;13.82;6.50;;;8.90;99.90;;;;;;5076426;28;20024;-72
2023/03/31 06:49:15;;;;;;;13.10;7.15;;;8.80;99.90;;;;;;5094239;28;20483;-72
2023/03/31 06:51:40;;;;;;;12.73;6.78;;;8.80;99.90;;;;;;5094163;28;20031;-73
2023/03/31 06:54:06;;;;;;;12.63;6.70;;;8.80;99.90;;;;;;5076298;28;20074;-72
2023/03/31 06:56:32;;;;;;;11.13;4.70;;;8.90;99.90;;;;;;5076185;28;20024;-72
2023/03/31 06:58:58;;;;;;;9.57;5.18;;;9.20;99.90;;;;;;5093928;28;20073;-72
2023/03/31 07:01:23;;;;;;;10.25;4.88;;;9.80;99.90;;;;;;5093808;28;20479;-71
2023/03/31 07:03:49;;;;;;;7.57;4.22;;;10.30;99.90;;;;;;5094215;28;20035;-72
2023/03/31 07:06:15;;;;;;;7.35;3.55;;;10.90;99.90;;;;;;5076509;28;20031;-72
2023/03/31 07:08:41;;;;;;;8.80;4.85;;;11.60;99.90;;;;;;5094343;28;20073;-73
2023/03/31 07:11:06;;;;;;;12.65;3.70;;;12.40;99.90;;;;;;5094112;28;20031;-72
2023/03/31 07:13:32;;;;;;;7.53;3.58;;;12.60;99.90;;;;;;5075874;28;20028;-72
2023/03/31 07:15:58;;;;;;;10.95;3.80;;;12.50;99.90;;;;;;5093812;28;20375;-72
2023/03/31 07:18:24;;;;;;;10.48;3.78;;;12.20;99.90;;;;;;5075758;28;20020;-72
2023/03/31 07:20:51;;;;;;;8.20;3.65;;;12.10;99.90;;;;;;5094219;28;20048;-73
2023/03/31 07:23:18;;;;;;;8.98;3.67;;;12.00;99.90;;;;;;5092604;28;20108;-71
2023/03/31 07:25:45;;;;;;;10.43;3.60;;;12.00;99.90;;;;;;5075761;28;20030;-72
2023/03/31 07:28:11;;;;;;;8.30;3.88;;;12.00;99.90;;;;;;5075775;28;20046;-72
2023/03/31 07:30:36;;;;;;;6.22;3.25;;;12.00;99.90;;;;;;5093839;28;20024;-72
2023/03/31 07:33:02;;;;;;;6.93;3.08;;;12.00;99.90;;;;;;5093757;28;20028;-72
2023/03/31 07:35:28;;;;;;;6.70;3.40;;;12.00;99.90;;;;;;5093834;28;20452;-72
2023/03/31 07:37:54;;;;;;;9.02;3.63;;;12.10;99.90;;;;;;5075783;28;20064;-72
2023/03/31 07:40:26;;;;;;;7.55;2.67;;;12.10;99.90;;;;;;5093544;28;20052;-71
2023/03/31 07:42:52;;;;;;;7.75;3.10;;;12.10;99.90;;;;;;5075628;28;20468;-71
2023/03/31 07:45:20;;;;;;;9.10;2.70;;;12.20;99.90;;;;;;5091540;28;20483;-72
2023/03/31 07:47:46;;;;;;;10.73;3.85;;;12.40;99.90;;;;;;5073661;28;20089;-74
2023/03/31 07:50:14;;;;;;;9.38;3.13;;;13.00;99.90;;;;;;5088503;28;20047;-74
2023/03/31 07:52:40;;;;;;;7.10;2.20;;;13.70;99.90;;;;;;5082476;28;20075;-74
2023/03/31 07:55:07;;;;;;;4.78;2.70;;;14.10;99.90;;;;;;5083779;28;20054;-74
2023/03/31 07:57:34;;;;;;;8.05;2.35;;;14.30;99.90;;;;;;5064846;28;20035;-74
2023/03/31 08:00:04;;;;;;;7.75;2.63;;;14.40;99.90;;;;;;5063077;28;20614;-73
2023/03/31 08:02:30;;;;;;;6.05;2.85;;;14.50;99.90;;;;;;5083075;28;20101;-74
2023/03/31 08:04:56;;;;;;;7.82;2.70;;;14.60;99.90;;;;;;5082458;28;20721;-75
2023/03/31 08:07:22;;;;;;;6.68;2.67;;;14.70;99.90;;;;;;5065382;28;20031;-74
2023/03/31 08:09:48;;;;;;;5.22;2.70;;;14.60;99.90;;;;;;5086644;28;20116;-74
2023/03/31 08:12:14;;;;;;;4.10;2.33;;;14.60;99.90;;;;;;5083841;28;20039;-75
2023/03/31 08:14:40;;;;;;;5.13;2.30;;;14.50;99.90;;;;;;5084639;28;20111;-74
2023/03/31 08:17:06;;;;;;;7.03;3.08;;;14.40;99.90;;;;;;5084253;28;20915;-74
2023/03/31 08:19:32;;;;;;;5.38;2.35;;;14.40;99.90;;;;;;5085308;28;20464;-74
2023/03/31 08:21:57;;;;;;;7.40;2.28;;;14.30;99.90;;;;;;5068492;28;20032;-74
2023/03/31 08:24:23;;;;;;;5.00;2.45;;;13.80;99.90;;;;;;5085772;28;20127;-74
2023/03/31 08:26:49;;;;;;;7.72;2.83;;;14.30;99.90;;;;;;5067735;28;20028;-74
2023/03/31 08:29:14;;;;;;;7.85;2.38;;;14.30;99.90;;;;;;5067807;28;20396;-74
2023/03/31 08:31:40;;;;;;;9.40;2.60;;;14.30;99.90;;;;;;5085821;28;20486;-74
2023/03/31 08:34:06;;;;;;;11.98;3.20;;;14.30;99.90;;;;;;5067715;28;20035;-74
2023/03/31 08:36:32;;;;;;;9.43;3.33;;;14.30;99.90;;;;;;5085845;28;20040;-74
2023/03/31 08:38:58;;;;;;;7.47;2.80;;;14.30;99.90;;;;;;5067839;28;20442;-74
2023/03/31 08:41:42;;;;;;;9.05;3.30;;;14.40;99.90;;;;;;5085248;28;20032;-74
2023/03/31 08:44:25;;;;;;;8.63;3.60;;;14.40;99.90;;;;;;5084752;28;20060;-74
2023/03/31 08:46:55;;;;;;;11.48;3.63;;;14.40;99.90;;;;;;5084955;28;20028;-69
2023/03/31 08:49:22;;;;;;;8.25;3.78;;;14.50;99.90;;;;;;5067048;28;20024;-63
2023/03/31 08:51:51;;;;;;;13.15;4.03;;;14.60;99.90;;;;;;5085083;28;20035;-63
2023/03/31 08:54:32;;;;;;;8.95;3.55;;;14.60;99.90;;;;;;5068418;28;20044;-73
2023/03/31 08:56:59;;;;;;;9.13;3.72;;;14.60;99.90;;;;;;5075666;28;20037;-73
2023/03/31 08:59:33;;;;;;;11.82;3.83;;;14.60;99.90;;;;;;5076422;28;20028;-72
2023/03/31 09:02:23;;;;;;;15.90;3.85;;;14.60;99.90;;;;;;5075077;28;20032;-72
2023/03/31 09:04:52;;;;;;;17.85;5.13;;;14.60;99.90;;;;;;5074690;28;20087;-75
2023/03/31 09:07:54;;;;;;;10.05;4.10;;;14.50;99.90;;;;;;5076366;28;20513;-74
2023/03/31 09:10:34;;;;;;;11.27;4.00;;;14.50;99.90;;;;;;5042323;28;20105;-73
2023/03/31 09:13:18;;;;;;;9.40;3.35;;;14.50;99.90;;;;;;5074993;28;20028;-73
2023/03/31 09:15:57;;;;;;;12.48;4.30;;;14.50;99.90;;;;;;5075741;28;20032;-73
2023/03/31 09:18:26;;;;;;;11.07;3.88;;;14.40;99.90;;;;;;5075588;28;20035;-73
2023/03/31 09:21:03;;;;;;;11.95;2.75;;;14.40;99.90;;;;;;5075375;28;20033;-73
2023/03/31 09:23:40;;;;;;;10.50;3.38;;;14.40;99.90;;;;;;5075193;28;20469;-73
2023/03/31 09:26:26;;;;;;;11.93;3.70;;;14.30;99.90;;;;;;5075812;28;20033;-73
2023/03/31 09:28:58;;;;;;;13.02;3.60;;;14.30;99.90;;;;;;5074562;28;20028;-73
2023/03/31 09:31:25;;;;;;;10.63;3.38;;;14.30;99.90;;;;;;5075618;28;20024;-74
2023/03/31 09:33:57;;;;;;;9.27;3.63;;;14.40;99.90;;;;;;5074340;28;20030;-73
2023/03/31 09:36:23;;;;;;;10.07;2.90;;;14.50;99.90;;;;;;5074619;28;20379;-73
2023/03/31 09:38:49;;;;;;;7.93;2.95;;;14.60;99.90;;;;;;5074267;28;20027;-73
2023/03/31 09:41:17;;;;;;;6.38;3.28;;;14.70;99.90;;;;;;5074096;28;20464;-73
2023/03/31 09:43:45;;;;;;;16.88;3.13;;;14.70;99.90;;;;;;5075511;28;20465;-73
2023/03/31 09:46:29;;;;;;;9.00;3.00;;;14.80;99.90;;;;;;5074098;28;20035;-72
2023/03/31 09:49:14;;;;;;;9.27;3.38;;;14.90;99.90;;;;;;5075477;28;20077;-73
2023/03/31 09:51:44;;;;;;;12.60;3.25;;;15.00;99.90;;;;;;5073894;28;20520;-72
2023/03/31 09:54:23;;;;;;;5.85;2.70;;;15.00;99.90;;;;;;5091484;28;20096;-73
2023/03/31 09:56:53;;;;;;;6.67;3.13;;;15.00;99.90;;;;;;5095651;28;20158;-73
2023/03/31 09:59:22;;;;;;;6.40;3.03;;;15.10;99.90;;;;;;5095062;28;20103;-72
2023/03/31 10:01:55;;;;;;;10.77;3.40;;;15.10;99.90;;;;;;5095334;28;20031;-72
2023/03/31 10:04:47;;;;;;;8.38;3.38;;;15.10;99.90;;;;;;5077116;28;20745;-72
2023/03/31 10:07:21;;;;;;;12.82;3.45;;;15.10;99.90;;;;;;5091703;28;20039;-72
2023/03/31 10:09:47;;;;;;;5.82;2.97;;;15.10;99.90;;;;;;5077022;28;20024;-73
2023/03/31 10:12:23;;;;;;;7.78;2.90;;;15.10;99.90;;;;;;5076823;28;20024;-73
2023/03/31 10:14:51;;;;;;;5.97;2.90;;;15.10;99.90;;;;;;5095487;28;20066;-73
2023/03/31 10:17:19;;;;;;;5.93;3.00;;;15.00;99.90;;;;;;5076877;28;20064;-73
2023/03/31 10:19:51;;;;;;;10.13;2.80;;;15.00;99.90;;;;;;5094981;28;20021;-72
2023/03/31 10:22:28;;;;;;;6.45;2.33;;;15.00;99.90;;;;;;5077186;28;20117;-72
2023/03/31 10:25:03;;;;;;;10.00;3.13;;;15.00;99.90;;;;;;5094846;28;20031;-61
2023/03/31 10:27:31;;;;;;;9.90;3.00;;;15.00;99.90;;;;;;5094873;28;20020;-61
2023/03/31 10:30:00;;;;;;;8.70;3.00;;;15.10;99.90;;;;;;5094011;28;20102;-73
2023/03/31 10:32:34;;;;;;;11.88;2.50;;;15.20;99.90;;;;;;5076182;28;20038;-74
2023/03/31 10:35:18;;;;;;;7.57;2.65;;;15.10;99.90;;;;;;5094683;28;20027;-73
2023/03/31 10:37:45;;;;;;;6.25;2.88;;;15.10;99.90;;;;;;5094418;28;20067;-73
2023/03/31 10:40:18;;;;;;;7.43;2.80;;;15.10;99.90;;;;;;5076368;28;20115;-73
2023/03/31 10:42:46;;;;;;;12.07;2.67;;;15.10;99.90;;;;;;5076395;28;20118;-73
2023/03/31 10:45:13;;;;;;;4.75;2.97;;;15.20;99.90;;;;;;5076361;28;20035;-73
2023/03/31 10:47:40;;;;;;;7.63;2.83;;;15.10;99.90;;;;;;5076164;28;20046;-73
2023/03/31 10:50:13;;;;;;;5.72;2.47;;;15.10;99.90;;;;;;5094463;28;20028;-73
2023/03/31 10:52:47;;;;;;;7.40;3.30;;;15.00;99.90;;;;;;5094199;28;20048;-73
2023/03/31 10:55:22;;;;;;;8.65;3.08;;;15.00;99.90;;;;;;5094303;28;20385;-73
2023/03/31 10:58:04;;;;;;;7.18;2.72;;;15.00;99.90;;;;;;5094796;28;20404;-73
2023/03/31 11:00:59;;;;;;;11.10;3.50;;;15.00;99.90;;;;;;5094157;28;20058;-73
2023/03/31 11:03:48;;;;;;;4.95;2.80;;;15.00;99.90;;;;;;5055687;28;20040;-73
2023/03/31 11:06:48;;;;;;;6.53;2.75;;;15.00;99.90;;;;;;5094178;28;20030;-73
2023/03/31 11:09:42;;;;;;;6.72;3.17;;;15.00;99.90;;;;;;5076346;28;20493;-73
2023/03/31 11:12:11;;;;;;;5.97;2.88;;;15.00;99.90;;;;;;5093834;28;20028;-73
2023/03/31 11:15:10;;;;;;;4.95;3.00;;;15.10;99.90;;;;;;5076220;28;20038;-73
2023/03/31 11:17:48;;;;;;;6.88;3.38;;;15.10;99.90;;;;;;5075772;28;20479;-73
2023/03/31 11:21:05;;;;;;;6.78;3.28;;;15.20;99.90;;;;;;5075742;28;20119;-73
2023/03/31 11:23:39;;;;;;;4.85;2.63;;;15.90;99.90;;;;;;5048838;28;20044;-73
2023/03/31 11:26:23;;;;;;;8.52;3.88;;;16.80;99.90;;;;;;5094315;28;20028;-73
2023/03/31 11:28:57;;;;;;;5.82;3.08;;;17.50;99.90;;;;;;5094004;28;20060;-73
2023/03/31 11:31:53;;;;;;;5.43;2.90;;;18.00;99.40;;;;;;5075617;28;20464;-73
2023/03/31 11:34:43;;;;;;;6.53;2.67;;;18.50;95.60;;;;;;5094165;28;20375;-73
2023/03/31 11:37:21;;;;;;;7.35;3.38;;;18.80;92.70;;;;;;5075409;28;20057;-74
2023/03/31 11:39:54;;;;;;;10.18;2.90;;;19.40;92.40;;;;;;5093894;28;20028;-74
2023/03/31 11:42:32;;;;;;;5.82;2.50;;;20.70;89.30;;;;;;5094903;28;20028;-74
2023/03/31 11:45:25;;;;;;;5.43;2.60;;;21.70;78.10;;;;;;5079896;28;20071;-73
2023/03/31 11:47:56;;;;;;;6.03;2.58;;;21.30;75.90;;;;;;5079835;28;20537;-73
2023/03/31 11:50:29;;;;;;;4.38;2.67;;;21.40;71.90;;;;;;5079792;28;20388;-73
2023/03/31 11:53:04;;;;;;;5.55;2.85;;;22.30;70.60;;;;;;5079617;28;20048;-72
2023/03/31 11:55:31;;;;;;;9.13;2.97;;;23.60;64.30;;;;;;5097771;28;20020;-75
2023/03/31 11:58:16;;;;;;;5.30;2.20;;;24.20;59.50;;;;;;5079250;28;20082;-74
2023/03/31 12:01:18;;;;;;;6.63;2.20;;;23.50;54.10;;;;;;5097652;28;20084;-74
2023/03/31 12:03:55;;;;;;;10.23;2.78;;;22.30;55.50;;;;;;5035442;28;20464;-75
2023/03/31 12:06:24;;;;;;;4.60;1.95;;;21.10;57.40;;;;;;5079615;28;20024;-75
2023/03/31 12:09:18;;;;;;;4.95;2.28;;;20.40;57.80;;;;;;5078694;28;20609;-74
2023/03/31 12:11:50;;;;;;;4.05;2.20;;;19.30;60.40;;;;;;5097197;28;20028;-71
2023/03/31 12:14:27;;;;;;;5.88;2.35;;;18.70;63.60;;;;;;5079095;28;20063;-75
2023/03/31 12:17:14;;;;;;;2.97;1.83;;;18.40;65.10;;;;;;5079188;28;20035;-71
2023/03/31 12:19:49;;;;;;;6.43;2.10;;;18.30;65.00;;;;;;5079178;28;20028;-73
2023/03/31 12:22:35;;;;;;;5.65;2.13;;;17.90;66.20;;;;;;5097076;28;20109;-73
2023/03/31 12:25:01;;;;;;;4.60;2.08;;;17.60;67.20;;;;;;5097186;28;20032;-73
2023/03/31 12:27:39;;;;;;;3.90;1.88;;;17.50;67.30;;;;;;5079257;28;20028;-74
2023/03/31 12:30:16;;;;;;;7.85;1.88;;;17.30;66.70;;;;;;5097212;28;20468;-72
2023/03/31 12:32:57;;;;;;;11.38;2.20;;;17.00;68.70;;;;;;5078892;28;20027;-73
2023/03/31 12:35:50;;;;;;;4.60;1.90;;;17.10;69.90;;;;;;5078752;28;20020;-72
2023/03/31 12:38:45;;;;;;;5.63;2.28;;;17.70;69.70;;;;;;5096990;28;20399;-71
2023/03/31 12:41:27;;;;;;;3.28;2.33;;;18.30;69.00;;;;;;5078816;28;20076;-71
2023/03/31 12:44:19;;;;;;;7.65;2.70;;;18.70;65.80;;;;;;5078561;28;20036;-71
2023/03/31 12:47:07;;;;;;;6.18;2.10;;;19.10;65.00;;;;;;5078803;28;20030;-71
2023/03/31 12:50:11;;;;;;;6.32;1.88;;;19.50;63.70;;;;;;5096807;28;20024;-67
2023/03/31 12:52:59;;;;;;;3.78;1.80;;;20.70;61.30;;;;;;5083702;28;20051;-67
2023/03/31 12:55:56;;;;;;;6.85;2.13;;;22.00;58.10;;;;;;5096679;28;20031;-67
2023/03/31 12:58:28;;;;;;;2.65;1.50;;;22.50;56.10;;;;;;5085633;28;20043;-67
2023/03/31 13:01:20;;;;;;;5.28;1.90;;;23.40;52.90;;;;;;5096326;28;20032;-67
2023/03/31 13:03:50;;;;;;;2.13;1.58;;;24.00;52.00;;;;;;5078891;28;20077;-67
2023/03/31 13:06:28;;;;;;;1.85;1.17;;;24.70;48.70;;;;;;5095977;28;20063;-67
2023/03/31 13:09:07;;;;;;;1.88;1.40;;;25.20;46.90;;;;;;5078190;28;20376;-67
2023/03/31 13:11:33;;;;;;;2.15;1.35;;;25.40;46.50;;;;;;5078247;28;20028;-67
2023/03/31 13:14:12;;;;;;;3.88;1.48;;;25.40;46.30;;;;;;5078092;28;20440;-67
2023/03/31 13:16:39;;;;;;;4.97;1.50;;;25.80;45.40;;;;;;5096217;28;20034;-67
2023/03/31 13:19:06;;;;;;;2.28;1.50;;;26.30;44.70;;;;;;5096152;28;20028;-61